Time;durP1;ratioP1;P1;durP2;ratioP2;P2;SDS_P1;SDS_P2;PMS_P1;PMS_P2;Temp;Humidity;BMP_temperature;BMP_pressure;BME280_temperature;BME280_humidity;BME280_pressure;Samples;Min_cycle;Max_cycle;Signal;HPM_P1;HPM_P2
2021/06/27 00:00:23;;;;;;;8.63;3.58;;;;;;;18.15;92.46;96832.09;5045110;28;20139;-63
2021/06/27 00:02:48;;;;;;;4.95;2.97;;;;;;;18.10;94.82;96833.34;5043954;28;20412;-63
2021/06/27 00:05:18;;;;;;;8.50;3.05;;;;;;;18.09;94.07;96845.78;5044071;28;20124;-63
2021/06/27 00:07:43;;;;;;;7.30;3.95;;;;;;;18.13;93.88;96840.91;5043924;28;20037;-64
2021/06/27 00:10:12;;;;;;;14.77;3.75;;;;;;;18.12;94.38;96839.31;5044916;28;20035;-60
2021/06/27 00:12:39;;;;;;;7.55;3.20;;;;;;;17.87;96.20;96817.28;5038906;28;20037;-61
2021/06/27 00:15:14;;;;;;;7.05;3.40;;;;;;;17.97;95.10;96843.56;5025303;28;20236;-61
2021/06/27 00:17:40;;;;;;;9.25;3.38;;;;;;;17.87;95.32;96838.91;5024129;28;20404;-60
2021/06/27 00:20:10;;;;;;;6.28;2.85;;;;;;;17.60;96.14;96832.50;5023619;28;20041;-61
2021/06/27 00:22:36;;;;;;;6.50;3.30;;;;;;;17.65;96.71;96837.63;5025650;28;20140;-63
2021/06/27 00:25:05;;;;;;;6.75;3.17;;;;;;;17.70;96.80;96832.34;5023853;28;20559;-64
2021/06/27 00:27:31;;;;;;;6.03;2.85;;;;;;;17.31;94.48;96778.06;5025285;28;20060;-62
2021/06/27 00:29:56;;;;;;;5.55;3.17;;;;;;;17.67;96.36;96829.59;5025480;28;20025;-61
2021/06/27 00:32:21;;;;;;;6.32;2.92;;;;;;;17.44;95.39;96805.09;5024934;28;20416;-63
2021/06/27 00:34:47;;;;;;;6.93;2.92;;;;;;;17.11;96.42;96757.53;5025092;28;20759;-60
2021/06/27 00:37:12;;;;;;;6.50;3.63;;;;;;;17.64;97.17;96824.84;5024379;28;20042;-60
2021/06/27 00:39:38;;;;;;;8.88;3.50;;;;;;;17.32;96.56;96796.44;5023425;28;20047;-59
2021/06/27 00:42:04;;;;;;;7.30;2.70;;;;;;;17.28;96.21;96778.88;5024704;28;20045;-62
2021/06/27 00:44:29;;;;;;;4.97;2.88;;;;;;;17.18;94.67;96779.84;5025253;28;20120;-61
2021/06/27 00:46:55;;;;;;;8.82;2.95;;;;;;;17.27;94.39;96834.09;5023073;28;20037;-61
2021/06/27 00:49:21;;;;;;;9.05;3.10;;;;;;;17.17;94.22;96767.03;5024799;28;20026;-60
2021/06/27 00:51:47;;;;;;;7.35;2.65;;;;;;;17.51;93.40;96829.41;5024329;28;20065;-60
2021/06/27 00:54:13;;;;;;;10.73;3.03;;;;;;;17.49;94.86;96834.66;5024594;28;20423;-63
2021/06/27 00:56:38;;;;;;;10.88;3.08;;;;;;;17.49;93.27;96829.03;5024528;28;20041;-61
2021/06/27 00:59:04;;;;;;;6.93;2.45;;;;;;;17.35;93.37;96818.81;5024836;28;20033;-60
2021/06/27 01:01:29;;;;;;;9.70;2.78;;;;;;;16.64;93.66;96726.53;5025061;28;20145;-62
2021/06/27 01:03:55;;;;;;;6.10;2.78;;;;;;;17.24;95.14;96823.75;5024781;28;20536;-60
2021/06/27 01:06:20;;;;;;;14.20;3.00;;;;;;;17.27;94.29;96822.09;5022440;28;20050;-62
2021/06/27 01:08:46;;;;;;;3.17;2.67;;;;;;;16.88;96.21;96744.25;5024515;28;20029;-61
2021/06/27 01:11:12;;;;;;;11.55;2.58;;;;;;;17.17;94.41;96823.81;5023152;28;20033;-60
2021/06/27 01:13:37;;;;;;;6.30;2.85;;;;;;;16.80;94.95;96764.31;5038968;28;20411;-61
2021/06/27 01:16:03;;;;;;;4.45;2.60;;;;;;;17.04;95.25;96813.59;5042133;28;20029;-61
2021/06/27 01:18:29;;;;;;;10.73;2.85;;;;;;;16.59;96.38;96741.00;5044823;28;20029;-60
2021/06/27 01:20:55;;;;;;;6.95;2.72;;;;;;;16.99;96.00;96797.28;5042578;28;20635;-61
2021/06/27 01:23:20;;;;;;;4.88;2.45;;;;;;;17.09;95.58;96801.94;5044293;28;20068;-63
2021/06/27 01:25:51;;;;;;;3.65;3.08;;;;;;;17.20;93.25;96811.00;5043623;28;20106;-61
2021/06/27 01:28:17;;;;;;;7.72;2.65;;;;;;;17.21;91.88;96801.38;5043615;28;20037;-60
2021/06/27 01:30:43;;;;;;;11.10;2.63;;;;;;;16.21;91.50;96643.53;5043634;28;20148;-60
2021/06/27 01:33:16;;;;;;;6.97;3.00;;;;;;;17.19;92.93;96804.63;5044366;28;20072;-63
2021/06/27 01:35:42;;;;;;;7.97;3.30;;;;;;;17.04;93.75;96813.59;5043560;28;20052;-62
2021/06/27 01:38:08;;;;;;;12.23;3.35;;;;;;;16.70;96.85;96816.38;5044464;28;20043;-61
2021/06/27 01:40:34;;;;;;;10.20;3.10;;;;;;;16.81;96.10;96827.44;5042048;28;20117;-61
2021/06/27 01:43:11;;;;;;;9.57;3.60;;;;;;;16.79;96.75;96835.47;5041915;28;20114;-63
2021/06/27 01:45:38;;;;;;;12.82;3.78;;;;;;;16.70;97.41;96801.59;5041670;28;20033;-60
2021/06/27 01:48:07;;;;;;;10.50;3.58;;;;;;;16.86;97.31;96818.59;5042192;28;20044;-62
2021/06/27 01:50:34;;;;;;;12.50;3.70;;;;;;;16.98;98.56;96820.84;5041481;28;20029;-61
2021/06/27 01:53:00;;;;;;;4.95;3.42;;;;;;;17.01;98.39;96820.81;5042243;28;20033;-61
2021/06/27 01:55:27;;;;;;;7.10;3.20;;;;;;;16.90;97.25;96808.19;5043587;28;20033;-62
2021/06/27 01:57:54;;;;;;;5.97;2.78;;;;;;;17.01;95.35;96825.63;5042154;28;20091;-61
2021/06/27 02:00:23;;;;;;;6.68;2.72;;;;;;;17.06;96.11;96813.97;5041459;28;20384;-61
2021/06/27 02:02:49;;;;;;;12.55;2.88;;;;;;;16.75;95.72;96750.78;5043287;28;20053;-61
2021/06/27 02:05:15;;;;;;;6.53;2.70;;;;;;;16.76;94.83;96809.13;5041297;28;20151;-61
2021/06/27 02:07:41;;;;;;;10.98;3.13;;;;;;;16.36;94.08;96696.06;5043507;28;20120;-62
2021/06/27 02:10:12;;;;;;;11.85;3.20;;;;;;;17.09;94.18;96804.72;5041147;28;20036;-62
2021/06/27 02:12:38;;;;;;;6.40;2.50;;;;;;;17.05;92.34;96810.38;5037953;28;20065;-63
2021/06/27 02:15:07;;;;;;;6.32;2.50;;;;;;;16.99;93.22;96808.47;5023192;28;20411;-63
2021/06/27 02:17:33;;;;;;;6.20;2.83;;;;;;;16.70;94.40;96754.03;5021985;28;20041;-61
2021/06/27 02:19:58;;;;;;;7.38;2.90;;;;;;;17.04;94.65;96808.00;5023672;28;20029;-61
2021/06/27 02:22:24;;;;;;;7.07;2.83;;;;;;;16.91;94.51;96787.38;5021342;28;20036;-62
2021/06/27 02:24:50;;;;;;;4.78;2.30;;;;;;;17.09;94.49;96804.72;5023377;28;20034;-62
2021/06/27 02:27:17;;;;;;;7.78;2.90;;;;;;;16.72;94.01;96749.63;5021437;28;20039;-64
2021/06/27 02:29:42;;;;;;;5.85;2.80;;;;;;;17.06;92.83;96797.16;5023540;28;20042;-62
2021/06/27 02:32:08;;;;;;;8.45;2.35;;;;;;;17.08;93.03;96791.94;5021569;28;20036;-61
2021/06/27 02:34:34;;;;;;;4.72;2.63;;;;;;;16.73;92.77;96769.97;5023365;28;20038;-62
2021/06/27 02:37:00;;;;;;;5.10;2.80;;;;;;;16.58;92.45;96753.38;5022829;28;20029;-61
2021/06/27 02:39:26;;;;;;;3.10;2.75;;;;;;;16.88;93.80;96807.78;5023201;28;20051;-61
2021/06/27 02:41:52;;;;;;;5.25;2.17;;;;;;;16.89;91.11;96812.16;5023214;28;20041;-61
2021/06/27 02:44:18;;;;;;;7.25;2.72;;;;;;;16.84;91.58;96815.41;5023479;28;20041;-60
2021/06/27 02:46:43;;;;;;;4.97;2.45;;;;;;;16.85;91.32;96822.63;5021586;28;20044;-62
2021/06/27 02:49:10;;;;;;;7.28;2.50;;;;;;;16.87;93.85;96814.56;5023406;28;20133;-60
2021/06/27 02:51:35;;;;;;;5.78;2.85;;;;;;;16.16;94.55;96702.69;5022919;28;20420;-63
2021/06/27 02:54:01;;;;;;;10.48;2.70;;;;;;;16.63;93.58;96796.84;5023275;28;20029;-60
2021/06/27 02:56:27;;;;;;;6.85;3.03;;;;;;;16.62;93.67;96814.88;5022810;28;20049;-63
2021/06/27 02:58:53;;;;;;;4.45;2.72;;;;;;;16.49;95.57;96811.78;5022912;28;20041;-61
2021/06/27 03:01:19;;;;;;;5.85;2.47;;;;;;;16.60;94.46;96812.47;5023081;28;20239;-60
2021/06/27 03:03:50;;;;;;;7.93;2.60;;;;;;;16.61;94.68;96813.28;5022683;28;20060;-60
2021/06/27 03:06:16;;;;;;;7.68;3.03;;;;;;;16.68;93.49;96801.22;5021422;28;20130;-61
2021/06/27 03:08:42;;;;;;;6.65;3.10;;;;;;;16.70;93.50;96798.78;5023291;28;20029;-60
2021/06/27 03:11:08;;;;;;;7.70;3.30;;;;;;;16.71;93.73;96789.97;5022479;28;20025;-60
2021/06/27 03:13:41;;;;;;;11.52;3.03;;;;;;;16.87;92.59;96795.00;5034749;28;20025;-60
2021/06/27 03:16:08;;;;;;;4.68;3.00;;;;;;;16.98;90.51;96792.88;5042447;28;20817;-62
2021/06/27 03:18:34;;;;;;;7.13;2.80;;;;;;;17.09;89.88;96796.31;5042727;28;20029;-61
2021/06/27 03:21:00;;;;;;;11.10;2.90;;;;;;;17.09;89.34;96779.53;5041922;28;20036;-63
2021/06/27 03:23:26;;;;;;;6.13;2.80;;;;;;;17.40;89.26;96795.13;5045238;28;20029;-60
2021/06/27 03:25:53;;;;;;;5.00;2.90;;;;;;;17.49;88.66;96781.44;5044735;28;20035;-61
2021/06/27 03:28:20;;;;;;;9.90;3.13;;;;;;;17.52;88.09;96789.00;5046393;28;20403;-61
2021/06/27 03:30:45;;;;;;;4.03;2.63;;;;;;;17.64;87.46;96785.63;5045832;28;20040;-60
2021/06/27 03:33:11;;;;;;;5.28;3.00;;;;;;;17.41;85.33;96743.50;5044528;28;20037;-61
2021/06/27 03:35:36;;;;;;;9.88;3.05;;;;;;;17.76;86.30;96780.25;5046075;28;20075;-61
2021/06/27 03:40:41;;;;;;;5.70;2.63;;;;;;;17.59;87.65;96774.91;5045520;28;20029;-61
2021/06/27 03:43:07;;;;;;;6.03;3.00;;;;;;;17.70;87.86;96778.34;5046265;28;20484;-61
2021/06/27 03:45:32;;;;;;;8.10;3.20;;;;;;;17.53;85.62;96728.97;5046017;28;20029;-64
2021/06/27 03:47:58;;;;;;;7.10;3.03;;;;;;;17.65;86.23;96726.38;5046119;28;20044;-61
2021/06/27 03:50:23;;;;;;;6.80;3.08;;;;;;;17.95;86.96;96767.53;5043717;28;20048;-60
2021/06/27 03:52:49;;;;;;;6.32;3.10;;;;;;;18.01;86.93;96765.81;5045628;28;20033;-62
2021/06/27 03:55:16;;;;;;;10.60;3.50;;;;;;;17.96;87.34;96738.25;5043720;28;20037;-61
2021/06/27 03:57:41;;;;;;;8.85;3.42;;;;;;;18.20;87.33;96762.28;5044344;28;20419;-62
2021/06/27 04:00:08;;;;;;;9.45;3.30;;;;;;;18.06;87.13;96714.88;5046035;28;20032;-61
2021/06/27 04:02:34;;;;;;;6.05;3.70;;;;;;;18.11;83.95;96686.38;5044053;28;20273;-61
2021/06/27 04:04:59;;;;;;;7.80;3.08;;;;;;;18.58;85.38;96754.41;5045531;28;20047;-61
2021/06/27 04:07:25;;;;;;;7.47;3.20;;;;;;;18.76;84.36;96755.66;5044929;28;20041;-61
2021/06/27 04:09:51;;;;;;;10.90;3.35;;;;;;;18.45;82.79;96692.53;5045615;28;20029;-62
2021/06/27 04:12:16;;;;;;;6.45;3.22;;;;;;;19.09;82.54;96762.22;5041417;28;20465;-62
2021/06/27 04:14:42;;;;;;;5.57;3.20;;;;;;;19.32;81.01;96760.13;5026322;28;20025;-62
2021/06/27 04:17:09;;;;;;;9.82;3.30;;;;;;;19.48;80.82;96760.19;5024038;28;20056;-62
2021/06/27 04:19:35;;;;;;;8.10;3.22;;;;;;;19.66;79.27;96767.41;5024233;28;20393;-61
2021/06/27 04:22:00;;;;;;;6.72;3.40;;;;;;;19.78;79.55;96758.28;5023560;28;20534;-61
2021/06/27 04:24:26;;;;;;;8.38;3.50;;;;;;;19.85;79.03;96758.13;5025504;28;20037;-61
2021/06/27 04:26:52;;;;;;;11.63;4.15;;;;;;;19.98;79.87;96747.78;5024373;28;20860;-62
2021/06/27 04:29:17;;;;;;;12.20;4.38;;;;;;;20.09;78.48;96757.53;5025742;28;20033;-61
2021/06/27 04:31:44;;;;;;;6.15;3.65;;;;;;;20.16;76.48;96762.22;5025330;28;20044;-61
2021/06/27 04:34:12;;;;;;;12.90;4.18;;;;;;;19.88;77.36;96718.69;5025339;28;20033;-64
2021/06/27 04:36:38;;;;;;;7.50;3.22;;;;;;;20.31;75.60;96769.06;5025069;28;20071;-61
2021/06/27 04:39:06;;;;;;;8.57;3.75;;;;;;;20.18;76.31;96756.94;5025283;28;20031;-61
2021/06/27 04:41:33;;;;;;;9.57;4.15;;;;;;;20.49;75.54;96764.56;5024621;28;20042;-63
2021/06/27 04:43:59;;;;;;;6.10;3.70;;;;;;;20.40;76.48;96715.78;5023037;28;20040;-61
2021/06/27 04:46:24;;;;;;;7.88;4.10;;;;;;;20.89;76.29;96759.47;5022874;28;20033;-61
2021/06/27 04:48:50;;;;;;;8.10;4.38;;;;;;;21.11;74.24;96765.31;5025618;28;20117;-61
2021/06/27 04:51:15;;;;;;;10.68;4.57;;;;;;;21.02;75.60;96737.81;5024837;28;20401;-62
2021/06/27 04:53:41;;;;;;;13.00;3.83;;;;;;;21.37;74.23;96762.09;5023528;28;20444;-62
2021/06/27 04:56:06;;;;;;;7.10;3.65;;;;;;;20.93;73.42;96686.91;5024632;28;20040;-61
2021/06/27 04:58:32;;;;;;;11.10;4.80;;;;;;;21.63;72.56;96758.09;5023376;28;20037;-62
2021/06/27 05:00:57;;;;;;;6.97;4.18;;;;;;;21.66;71.70;96757.19;5023065;28;20133;-61
2021/06/27 05:03:23;;;;;;;16.65;8.25;;;;;;;21.86;70.95;96743.69;5022699;28;20373;-60
2021/06/27 05:05:48;;;;;;;9.07;4.95;;;;;;;22.01;70.61;96769.41;5024663;28;20504;-62
2021/06/27 05:08:14;;;;;;;10.63;4.57;;;;;;;21.82;69.87;96695.06;5024996;28;20119;-61
2021/06/27 05:10:40;;;;;;;6.28;4.63;;;;;;;22.42;69.01;96770.03;5022561;28;20385;-60
2021/06/27 05:13:06;;;;;;;6.50;4.05;;;;;;;21.97;68.84;96715.91;5031405;28;20078;-60
2021/06/27 05:15:32;;;;;;;6.82;3.92;;;;;;;22.36;68.66;96754.94;5042563;28;20037;-60
2021/06/27 05:17:57;;;;;;;6.85;4.80;;;;;;;22.67;70.36;96779.72;5044533;28;20522;-60
2021/06/27 05:20:23;;;;;;;13.80;5.68;;;;;;;22.68;69.30;96772.84;5043956;28;20484;-60
2021/06/27 05:22:48;;;;;;;9.55;4.45;;;;;;;21.94;71.94;96778.88;5044777;28;20120;-63
2021/06/27 05:25:14;;;;;;;16.70;5.50;;;;;;;21.90;73.44;96757.69;5043630;28;20029;-61
2021/06/27 05:27:39;;;;;;;9.65;5.18;;;;;;;21.89;73.83;96787.13;5043919;28;20106;-63
2021/06/27 05:30:07;;;;;;;11.68;5.10;;;;;;;22.24;73.15;96792.41;5043202;28;20669;-60
2021/06/27 05:32:32;;;;;;;7.40;4.13;;;;;;;22.48;71.63;96799.28;5042112;28;20037;-61
2021/06/27 05:34:58;;;;;;;6.13;4.50;;;;;;;22.41;71.32;96790.25;5043704;28;20029;-64
2021/06/27 05:37:23;;;;;;;9.15;4.65;;;;;;;22.75;69.40;96786.69;5043650;28;20478;-61
2021/06/27 05:39:49;;;;;;;8.38;5.10;;;;;;;23.04;68.40;96796.56;5043712;28;20494;-61
2021/06/27 05:42:15;;;;;;;9.77;5.05;;;;;;;23.09;67.87;96772.56;5042423;28;20478;-64
2021/06/27 05:44:41;;;;;;;6.53;5.30;;;;;;;23.13;67.40;96744.94;5041780;28;20060;-61
2021/06/27 05:47:06;;;;;;;15.00;5.78;;;;;;;23.11;67.97;96781.38;5041846;28;20076;-61
2021/06/27 05:49:32;;;;;;;11.98;5.40;;;;;;;23.69;64.12;96793.75;5042152;28;20025;-62
2021/06/27 05:51:57;;;;;;;13.15;5.97;;;;;;;23.35;66.78;96746.56;5041482;28;20460;-61
2021/06/27 05:54:23;;;;;;;9.25;5.20;;;;;;;23.67;66.02;96779.25;5043506;28;20392;-60
2021/06/27 05:56:48;;;;;;;12.32;5.28;;;;;;;24.14;65.71;96802.47;5041635;28;20057;-61
2021/06/27 05:59:14;;;;;;;10.40;5.30;;;;;;;24.63;64.43;96800.44;5042013;28;20545;-60
2021/06/27 06:01:39;;;;;;;13.82;6.10;;;;;;;25.08;61.56;96799.75;5043836;28;20040;-60
2021/06/27 06:04:06;;;;;;;8.05;5.75;;;;;;;25.23;60.64;96809.97;5043275;28;20531;-62
2021/06/27 06:06:31;;;;;;;12.05;5.80;;;;;;;25.54;60.60;96811.88;5043278;28;20033;-61
2021/06/27 06:08:57;;;;;;;10.45;6.13;;;;;;;25.69;60.73;96812.81;5043853;28;20025;-61
2021/06/27 06:11:25;;;;;;;8.98;5.78;;;;;;;26.06;59.67;96808.63;5043370;28;20029;-61
2021/06/27 06:13:50;;;;;;;9.60;5.88;;;;;;;25.99;59.25;96766.34;5028747;28;20042;-61
2021/06/27 06:16:16;;;;;;;7.65;5.88;;;;;;;25.72;60.06;96712.53;5023160;28;20025;-61
2021/06/27 06:18:43;;;;;;;12.55;5.95;;;;;;;26.23;60.02;96765.19;5022088;28;20037;-62
2021/06/27 06:21:09;;;;;;;8.70;5.93;;;;;;;26.57;59.58;96798.00;5023395;28;20033;-61
2021/06/27 06:23:34;;;;;;;11.95;5.78;;;;;;;26.14;60.74;96701.97;5023818;28;20075;-61
2021/06/27 06:26:00;;;;;;;8.05;5.75;;;;;;;26.20;63.42;96803.06;5022990;28;20084;-62
2021/06/27 06:28:25;;;;;;;8.30;5.90;;;;;;;26.51;63.15;96814.13;5023505;28;20029;-61
2021/06/27 06:30:51;;;;;;;13.38;6.80;;;;;;;26.41;62.98;96755.78;5022675;28;20474;-62
2021/06/27 06:33:16;;;;;;;9.00;5.85;;;;;;;26.10;65.47;96797.88;5021600;28;20079;-62
2021/06/27 06:35:42;;;;;;;12.90;6.40;;;;;;;25.75;64.99;96742.81;5021225;28;20037;-61
2021/06/27 06:38:09;;;;;;;8.80;5.80;;;;;;;26.43;63.08;96793.03;5023718;28;20033;-61
2021/06/27 06:40:35;;;;;;;10.55;5.93;;;;;;;26.43;62.88;96776.00;5022837;28;20425;-61
2021/06/27 06:43:00;;;;;;;11.38;6.05;;;;;;;26.60;63.50;96799.88;5021578;28;20040;-63
2021/06/27 06:45:26;;;;;;;11.25;6.45;;;;;;;27.11;62.48;96797.66;5022498;28;20916;-61
2021/06/27 06:47:52;;;;;;;12.10;5.93;;;;;;;27.51;60.47;96791.50;5023298;28;20049;-62
2021/06/27 06:50:18;;;;;;;15.02;8.60;;;;;;;27.33;58.23;96704.25;5021159;28;20030;-61
2021/06/27 06:52:43;;;;;;;9.80;6.38;;;;;;;27.44;58.76;96735.75;5020938;28;20492;-62
2021/06/27 06:55:09;;;;;;;13.40;6.32;;;;;;;27.22;58.77;96715.41;5021085;28;20097;-60
2021/06/27 06:57:35;;;;;;;9.35;6.72;;;;;;;27.09;59.33;96737.66;5026098;28;20108;-63
2021/06/27 07:00:00;;;;;;;11.02;6.47;;;;;;;27.16;58.99;96708.06;5025149;28;20191;-62
2021/06/27 07:02:26;;;;;;;9.90;6.38;;;;;;;28.10;59.47;96782.53;5026316;28;20532;-62
2021/06/27 07:04:51;;;;;;;8.32;5.80;;;;;;;27.95;58.98;96753.25;5026664;28;20049;-62
2021/06/27 07:07:16;;;;;;;10.23;6.38;;;;;;;28.26;58.46;96788.97;5024671;28;20407;-61
2021/06/27 07:09:42;;;;;;;10.77;6.95;;;;;;;27.73;57.47;96707.31;5026561;28;20107;-61
2021/06/27 07:12:08;;;;;;;11.30;7.03;;;;;;;28.30;57.97;96783.84;5026800;28;20029;-61
2021/06/27 07:14:34;;;;;;;15.63;8.40;;;;;;;28.67;54.21;96790.69;5046709;28;20094;-61
2021/06/27 07:16:59;;;;;;;16.80;9.35;;;;;;;29.05;52.63;96793.28;5046595;28;20025;-61
2021/06/27 07:19:24;;;;;;;12.05;8.30;;;;;;;28.69;50.09;96719.69;5044781;28;20758;-60
2021/06/27 07:21:50;;;;;;;15.15;7.50;;;;;;;29.59;50.37;96790.34;5046403;28;20079;-61
2021/06/27 07:24:15;;;;;;;15.40;7.95;;;;;;;29.47;49.18;96739.34;5046557;28;20049;-61
2021/06/27 07:26:41;;;;;;;15.90;7.75;;;;;;;29.76;46.60;96733.44;5044585;28;20033;-65
2021/06/27 07:29:06;;;;;;;19.00;8.63;;;;;;;30.00;46.52;96788.19;5044886;28;20762;-61
2021/06/27 07:31:32;;;;;;;14.38;8.18;;;;;;;30.31;45.06;96791.09;5046070;28;20033;-61
2021/06/27 07:33:57;;;;;;;15.52;8.02;;;;;;;30.55;43.24;96777.25;5046287;28;20041;-61
2021/06/27 07:36:23;;;;;;;13.60;7.32;;;;;;;30.77;42.92;96786.00;5044536;28;20488;-61
2021/06/27 07:38:48;;;;;;;17.95;8.55;;;;;;;30.30;44.02;96795.25;5046162;28;20048;-63
2021/06/27 07:41:14;;;;;;;9.57;8.23;;;;;;;30.45;43.67;96789.34;5044301;28;20037;-62
2021/06/27 07:43:40;;;;;;;15.00;7.93;;;;;;;30.58;43.90;96786.88;5044416;28;20404;-61
2021/06/27 07:46:06;;;;;;;16.05;8.93;;;;;;;30.39;45.16;96803.63;5044110;28;20033;-62
2021/06/27 07:48:32;;;;;;;16.42;8.55;;;;;;;30.69;44.96;96799.16;5045024;28;20518;-62
2021/06/27 07:50:57;;;;;;;16.67;8.63;;;;;;;30.90;44.10;96786.31;5043846;28;20027;-62
2021/06/27 07:53:23;;;;;;;12.82;7.40;;;;;;;30.19;43.38;96737.94;5044524;28;20021;-61
2021/06/27 07:55:49;;;;;;;19.65;8.85;;;;;;;30.22;43.83;96739.84;5045759;28;20174;-63
2021/06/27 07:58:14;;;;;;;27.17;11.38;;;;;;;30.14;44.11;96747.28;5044379;28;20037;-63
2021/06/27 08:00:40;;;;;;;11.82;7.53;;;;;;;29.93;43.70;96794.34;5045344;28;20044;-62
2021/06/27 08:03:05;;;;;;;15.98;8.73;;;;;;;30.12;45.35;96795.56;5045727;28;20350;-62
2021/06/27 08:05:31;;;;;;;12.90;7.57;;;;;;;29.99;42.92;96791.56;5045211;28;20028;-60
2021/06/27 08:07:56;;;;;;;14.98;8.43;;;;;;;29.68;45.18;96789.44;5044856;28;20036;-62
2021/06/27 08:10:22;;;;;;;11.45;7.50;;;;;;;29.54;45.34;96750.31;5043592;28;20499;-61
2021/06/27 08:12:47;;;;;;;24.13;10.32;;;;;;;30.33;45.53;96799.16;5038719;28;20052;-60
2021/06/27 08:15:19;;;;;;;19.00;7.70;;;;;;;30.13;43.11;96771.41;5025364;28;21241;-62
2021/06/27 08:17:49;;;;;;;17.08;8.10;;;;;;;29.85;42.83;96758.97;5025759;28;20127;-62
2021/06/27 08:20:17;;;;;;;12.82;7.38;;;;;;;29.85;42.86;96792.44;5023380;28;20103;-62
2021/06/27 08:22:42;;;;;;;23.02;11.73;;;;;;;29.97;43.78;96783.47;5023974;28;20033;-62
2021/06/27 08:25:09;;;;;;;17.45;8.85;;;;;;;30.17;42.38;96797.69;5023136;28;20132;-60
2021/06/27 08:27:34;;;;;;;17.98;7.85;;;;;;;30.72;42.09;96792.44;5024990;28;20025;-61
2021/06/27 08:30:00;;;;;;;20.10;8.57;;;;;;;31.06;41.43;96790.56;5023592;28;20095;-61
2021/06/27 08:32:26;;;;;;;30.05;12.15;;;;;;;30.48;41.35;96774.84;5023849;28;20025;-61
2021/06/27 08:34:52;;;;;;;20.13;10.65;;;;;;;30.18;43.08;96793.53;5023931;28;20044;-61
2021/06/27 08:37:17;;;;;;;16.05;8.68;;;;;;;30.70;42.27;96789.28;5022942;28;20036;-61
2021/06/27 08:39:43;;;;;;;39.58;15.30;;;;;;;30.39;42.92;96717.84;5023325;28;20475;-61
2021/06/27 08:42:08;;;;;;;31.42;14.45;;;;;;;30.94;42.16;96798.31;5023210;28;20489;-61
2021/06/27 08:44:34;;;;;;;50.92;19.55;;;;;;;30.62;43.34;96799.63;5025465;28;20045;-59
2021/06/27 08:47:02;;;;;;;41.00;16.27;;;;;;;30.59;44.80;96794.94;5023144;28;20021;-59
2021/06/27 08:49:28;;;;;;;43.10;17.75;;;;;;;29.81;44.14;96769.84;5025453;28;20389;-61
2021/06/27 08:51:56;;;;;;;19.75;10.82;;;;;;;30.54;44.31;96795.66;5025029;28;20033;-62
2021/06/27 08:54:22;;;;;;;20.48;12.32;;;;;;;30.88;43.50;96794.63;5023074;28;20420;-62
2021/06/27 08:56:47;;;;;;;23.35;11.20;;;;;;;30.67;44.03;96793.16;5024264;28;20033;-61
2021/06/27 08:59:13;;;;;;;12.23;8.20;;;;;;;31.09;42.39;96751.53;5024427;28;20096;-62
2021/06/27 09:01:38;;;;;;;16.05;9.35;;;;;;;31.66;42.26;96783.53;5024376;28;20037;-60
2021/06/27 09:04:04;;;;;;;14.32;9.40;;;;;;;31.98;39.54;96791.44;5024480;28;20538;-60
2021/06/27 09:06:30;;;;;;;15.95;8.73;;;;;;;30.77;41.66;96757.38;5022856;28;20487;-66
2021/06/27 09:09:22;;;;;;;15.13;8.77;;;;;;;31.15;41.94;96801.00;5022946;28;20026;-61
2021/06/27 09:12:05;;;;;;;11.93;8.60;;;;;;;31.31;41.45;96788.88;5024208;28;20138;-60
2021/06/27 09:14:42;;;;;;;15.07;8.07;;;;;;;31.03;40.21;96753.59;5041967;28;20189;-62
2021/06/27 09:17:08;;;;;;;17.17;8.80;;;;;;;30.77;41.46;96788.84;5042060;28;20041;-61
2021/06/27 09:19:55;;;;;;;17.48;9.70;;;;;;;31.09;40.62;96803.06;5043649;28;20087;-60
2021/06/27 09:22:22;;;;;;;13.73;8.93;;;;;;;31.61;39.13;96793.69;5042002;28;20029;-61
2021/06/27 09:24:48;;;;;;;13.45;9.40;;;;;;;32.12;40.01;96793.28;5044461;28;20044;-63
2021/06/27 09:27:16;;;;;;;12.23;9.10;;;;;;;32.47;37.20;96789.16;5042237;28;20048;-60
2021/06/27 09:29:41;;;;;;;16.23;8.77;;;;;;;32.44;38.72;96799.56;5044594;28;20510;-61
2021/06/27 09:32:24;;;;;;;14.38;7.97;;;;;;;32.95;38.08;96781.00;5041805;28;20033;-62
2021/06/27 09:34:50;;;;;;;15.65;8.65;;;;;;;33.54;37.31;96790.72;5043867;28;20105;-62
2021/06/27 09:37:27;;;;;;;15.05;9.73;;;;;;;33.94;36.67;96782.69;5043616;28;20041;-62
2021/06/27 09:40:01;;;;;;;12.77;8.40;;;;;;;33.44;35.80;96683.19;5044019;28;20108;-61
2021/06/27 09:42:28;;;;;;;17.58;8.77;;;;;;;34.66;34.69;96774.28;5042058;28;20422;-61
2021/06/27 09:45:04;;;;;;;10.10;8.15;;;;;;;34.97;33.95;96782.34;5042064;28;20423;-61
2021/06/27 09:47:30;;;;;;;10.43;7.90;;;;;;;35.27;33.20;96783.06;5043230;28;20120;-62
2021/06/27 09:49:56;;;;;;;15.32;9.00;;;;;;;35.65;31.59;96787.59;5043715;28;20480;-61
2021/06/27 09:52:38;;;;;;;14.13;9.15;;;;;;;35.59;31.95;96794.75;5043494;28;20048;-62
2021/06/27 09:55:06;;;;;;;10.97;8.33;;;;;;;34.84;31.95;96773.59;5041753;28;20041;-61
2021/06/27 09:57:31;;;;;;;13.20;8.55;;;;;;;34.61;32.30;96783.75;5043344;28;20029;-61
2021/06/27 09:59:57;;;;;;;13.35;10.60;;;;;;;33.59;33.79;96781.28;5042049;28;20557;-62
2021/06/27 10:02:22;;;;;;;15.10;10.98;;;;;;;32.17;36.04;96726.56;5043127;28;20031;-62
2021/06/27 10:04:48;;;;;;;12.93;10.93;;;;;;;31.66;37.46;96780.66;5042989;28;20116;-64
2021/06/27 10:07:13;;;;;;;16.55;10.27;;;;;;;31.79;37.59;96783.84;5041052;28;20132;-62
2021/06/27 10:09:41;;;;;;;24.25;13.35;;;;;;;31.30;37.95;96779.50;5027856;28;20033;-61
2021/06/27 10:12:19;;;;;;;20.10;13.10;;;;;;;31.36;38.07;96791.78;5022999;28;20044;-61
2021/06/27 10:14:51;;;;;;;18.98;9.95;;;;;;;31.30;38.84;96790.94;5021935;28;20350;-61
2021/06/27 10:17:19;;;;;;;14.50;9.38;;;;;;;31.26;39.63;96781.00;5021599;28;20044;-62
2021/06/27 10:19:45;;;;;;;20.00;8.48;;;;;;;30.35;41.08;96791.63;5021580;28;20030;-61
2021/06/27 10:22:11;;;;;;;12.32;8.30;;;;;;;30.40;40.93;96782.31;5020502;28;20096;-61
2021/06/27 10:24:37;;;;;;;12.98;9.00;;;;;;;29.25;45.89;96790.44;5020487;28;20041;-61
2021/06/27 10:27:07;;;;;;;19.38;8.68;;;;;;;27.50;53.49;96727.34;5021091;28;20038;-62
2021/06/27 10:29:39;;;;;;;14.38;7.50;;;;;;;25.55;59.62;96729.13;5023578;28;20034;-61
2021/06/27 10:32:06;;;;;;;13.77;8.25;;;;;;;25.69;64.88;96818.50;5023337;28;20515;-62
2021/06/27 10:34:32;;;;;;;18.50;7.63;;;;;;;25.00;68.35;96813.44;5027677;28;20645;-61
2021/06/27 10:37:08;;;;;;;14.52;8.00;;;;;;;24.72;74.21;96820.31;5026779;28;20577;-62
2021/06/27 10:39:33;;;;;;;13.30;8.65;;;;;;;24.10;76.61;96755.75;5027277;28;20116;-62
2021/06/27 10:42:01;;;;;;;18.15;8.15;;;;;;;23.64;82.51;96751.91;5026640;28;20142;-65
2021/06/27 10:44:39;;;;;;;17.80;8.18;;;;;;;23.88;82.04;96829.38;5027558;28;20079;-62
2021/06/27 10:47:06;;;;;;;17.98;8.20;;;;;;;23.70;87.39;96835.72;5027388;28;20061;-62
2021/06/27 10:49:32;;;;;;;25.58;15.35;;;;;;;23.62;91.11;96819.47;5026090;28;20041;-63
2021/06/27 10:52:03;;;;;;;23.08;15.00;;;;;;;23.23;87.96;96760.72;5024830;28;20135;-63
2021/06/27 10:54:35;;;;;;;14.52;8.13;;;;;;;23.11;85.23;96803.97;5027368;28;20150;-64
2021/06/27 10:57:12;;;;;;;16.27;9.57;;;;;;;23.17;97.24;96814.25;5026951;28;20049;-63
2021/06/27 10:59:52;;;;;;;18.27;8.80;;;;;;;22.89;91.96;96832.19;5027098;28;20053;-61
2021/06/27 11:02:36;;;;;;;20.13;10.55;;;;;;;22.86;100.00;96832.34;5026897;28;20324;-62
2021/06/27 11:05:33;;;;;;;19.17;10.40;;;;;;;22.80;99.32;96811.53;5025723;28;20071;-62
2021/06/27 11:08:00;;;;;;;24.67;11.35;;;;;;;22.74;100.00;96816.19;5025519;28;20051;-64
2021/06/27 11:10:27;;;;;;;23.90;11.65;;;;;;;22.75;100.00;96834.69;5026714;28;20152;-64
2021/06/27 11:13:02;;;;;;;24.63;12.23;;;;;;;22.82;100.00;96855.03;5030592;28;20092;-64
2021/06/27 11:15:39;;;;;;;22.13;10.20;;;;;;;22.12;98.34;96798.88;5044783;28;20098;-63
2021/06/27 11:18:07;;;;;;;14.93;8.05;;;;;;;22.16;92.82;96892.66;5046474;28;20568;-63
2021/06/27 11:20:54;;;;;;;18.25;9.15;;;;;;;21.84;95.18;96884.38;5045844;28;20121;-63
2021/06/27 11:23:45;;;;;;;21.20;8.43;;;;;;;21.56;96.61;96875.94;5044747;28;20041;-66
2021/06/27 11:26:30;;;;;;;25.85;7.97;;;;;;;20.14;94.76;96765.47;5044548;28;20048;-67
2021/06/27 11:28:56;;;;;;;24.15;9.50;;;;;;;20.45;96.93;96858.75;5044490;28;20049;-64